createdAt,value
2019-03-03T00:01:32.844Z,79.48
2019-03-03T00:04:22.595Z,79.07
2019-03-03T00:07:11.825Z,79.78
2019-03-03T00:10:01.399Z,78.96
2019-03-03T00:12:50.174Z,79.14
2019-03-03T00:15:39.168Z,78.63
2019-03-03T00:18:28.420Z,76.30
2019-03-03T00:21:18.063Z,77.61
2019-03-03T00:24:07.451Z,77.39
2019-03-03T00:26:57.002Z,77.94
2019-03-03T00:29:46.481Z,79.43
2019-03-03T00:32:35.780Z,79.17
2019-03-03T00:35:25.117Z,77.98
2019-03-03T00:38:36.321Z,78.40
2019-03-03T00:41:42.944Z,78.98
2019-03-03T00:44:47.251Z,78.68
2019-03-03T00:47:58.897Z,79.43
2019-03-03T00:51:17.183Z,79.08
2019-03-03T00:54:27.300Z,79.43
2019-03-03T00:57:26.703Z,79.92
2019-03-03T01:00:43.245Z,79.92
2019-03-03T01:04:07.150Z,79.45
2019-03-03T01:07:23.867Z,81.05
2019-03-03T01:10:23.563Z,81.09
2019-03-03T01:13:22.944Z,80.49
2019-03-03T01:16:18.871Z,81.02
2019-03-03T01:19:25.594Z,81.78
2019-03-03T01:22:29.201Z,81.13
2019-03-03T01:25:18.350Z,81.44
2019-03-03T01:28:08.135Z,81.96
2019-03-03T01:30:57.633Z,82.24
2019-03-03T01:33:46.968Z,82.13
2019-03-03T01:36:36.168Z,81.62
2019-03-03T01:39:25.433Z,81.98
2019-03-03T01:42:14.897Z,82.00
2019-03-03T01:45:05.141Z,82.61
2019-03-03T01:47:54.695Z,82.10
2019-03-03T01:50:43.397Z,82.21
2019-03-03T01:53:32.833Z,82.19
2019-03-03T01:56:22.121Z,82.89
2019-03-03T01:59:11.441Z,83.53
2019-03-03T02:02:01.068Z,81.47
2019-03-03T02:04:50.391Z,82.02
2019-03-03T02:07:39.296Z,82.48
2019-03-03T02:10:28.667Z,82.70
2019-03-03T02:13:18.226Z,82.24
2019-03-03T02:16:07.909Z,82.38
2019-03-03T02:18:57.616Z,83.44
2019-03-03T02:21:46.452Z,83.08
2019-03-03T02:24:35.758Z,83.46
2019-03-03T02:27:25.805Z,83.19
2019-03-03T02:30:17.410Z,85.35
2019-03-03T02:33:06.647Z,86.77
2019-03-03T02:35:55.671Z,85.46
2019-03-03T02:38:45.446Z,85.58
2019-03-03T02:41:34.845Z,84.86
2019-03-03T02:44:24.125Z,84.96
2019-03-03T02:47:13.393Z,85.21
2019-03-03T02:50:03.836Z,84.65
2019-03-03T02:52:53.208Z,84.65
2019-03-03T02:55:42.535Z,84.65
2019-03-03T02:58:31.917Z,84.02
2019-03-03T03:01:27.913Z,83.61
2019-03-03T03:04:17.190Z,84.71
2019-03-03T03:07:28.618Z,85.62
2019-03-03T03:10:39.368Z,85.68
2019-03-03T03:13:47.058Z,86.34
2019-03-03T03:16:45.724Z,85.56
2019-03-03T03:19:56.719Z,86.51
2019-03-03T03:22:54.357Z,86.12
2019-03-03T03:25:54.035Z,86.77
2019-03-03T03:28:50.520Z,86.84
2019-03-03T03:32:06.125Z,86.46
2019-03-03T03:35:00.913Z,87.12
2019-03-03T03:38:21.444Z,87.88
2019-03-03T03:41:32.465Z,86.97
2019-03-03T03:44:27.250Z,88.05
2019-03-03T03:47:28.027Z,89.51
2019-03-03T03:50:34.352Z,89.29
2019-03-03T03:53:32.065Z,88.67
2019-03-03T03:56:36.605Z,87.59
2019-03-03T03:59:35.384Z,87.93
2019-03-03T04:02:42.230Z,89.38
2019-03-03T04:05:48.344Z,87.98
2019-03-03T04:09:01.855Z,87.72
2019-03-03T04:12:15.359Z,88.45
2019-03-03T04:15:13.554Z,88.22
2019-03-03T04:18:22.202Z,88.37
2019-03-03T04:21:36.341Z,88.01
2019-03-03T04:24:50.318Z,88.59
2019-03-03T04:27:56.541Z,88.86
2019-03-03T04:31:11.069Z,89.47
2019-03-03T04:34:20.558Z,89.41
2019-03-03T04:37:22.258Z,88.32
2019-03-03T04:40:35.452Z,89.25
2019-03-03T04:43:32.246Z,90.20
2019-03-03T04:46:37.334Z,89.71
2019-03-03T04:49:44.449Z,90.10
2019-03-03T04:52:42.299Z,91.96
2019-03-03T04:55:50.243Z,93.65
2019-03-03T04:59:04.167Z,94.21
2019-03-03T05:02:12.093Z,95.64
2019-03-03T05:05:18.788Z,94.94
2019-03-03T05:08:31.738Z,94.42
2019-03-03T05:12:15.207Z,93.13
2019-03-03T05:15:13.382Z,91.87
2019-03-03T05:18:30.579Z,91.89
2019-03-03T05:21:19.211Z,91.14
2019-03-03T05:24:08.539Z,91.57
2019-03-03T05:26:58.141Z,91.16
2019-03-03T05:29:47.255Z,89.15
2019-03-03T05:32:35.893Z,89.64
2019-03-03T05:35:26.130Z,89.41
2019-03-03T05:38:15.761Z,90.26
2019-03-03T05:41:04.940Z,90.22
2019-03-03T05:43:54.433Z,90.33
2019-03-03T05:46:44.099Z,90.82
2019-03-03T05:49:33.354Z,89.55
2019-03-03T05:52:22.918Z,88.40
2019-03-03T05:55:12.474Z,89.49
2019-03-03T05:58:01.776Z,89.13
2019-03-03T06:00:51.577Z,87.66
2019-03-03T06:03:40.995Z,86.31
2019-03-03T06:06:30.054Z,85.68
2019-03-03T06:09:19.492Z,85.83
2019-03-03T06:12:08.510Z,84.10
2019-03-03T06:14:57.802Z,84.41
2019-03-03T06:17:47.283Z,82.65
2019-03-03T06:20:36.256Z,81.06
2019-03-03T06:23:25.649Z,79.75
2019-03-03T06:26:14.692Z,81.16
2019-03-03T06:29:03.969Z,79.59
2019-03-03T06:31:53.547Z,78.57
2019-03-03T06:34:42.189Z,79.13
2019-03-03T06:37:31.594Z,81.16
2019-03-03T06:40:20.571Z,83.76
2019-03-03T06:43:09.822Z,83.76
2019-03-03T06:45:59.324Z,84.48
2019-03-03T06:48:48.664Z,84.41
2019-03-03T06:51:38.454Z,83.28
2019-03-03T06:54:27.935Z,81.39
2019-03-03T06:57:17.246Z,79.96
2019-03-03T07:00:12.699Z,77.64
2019-03-03T07:03:02.054Z,76.47
2019-03-03T07:05:51.700Z,76.99
2019-03-03T07:08:41.131Z,77.65
2019-03-03T07:11:30.201Z,77.71
2019-03-03T07:14:19.331Z,77.25
2019-03-03T07:17:08.906Z,77.11
2019-03-03T07:19:58.392Z,77.98
2019-03-03T07:22:47.621Z,78.27
2019-03-03T07:25:37.134Z,77.76
2019-03-03T07:28:26.346Z,76.95
2019-03-03T07:31:16.011Z,76.05
2019-03-03T07:34:05.229Z,74.42
2019-03-03T07:36:54.687Z,71.51
2019-03-03T07:39:43.982Z,68.79
2019-03-03T07:42:33.278Z,67.38
2019-03-03T07:45:22.547Z,68.39
2019-03-03T07:48:11.874Z,67.33
2019-03-03T07:51:01.150Z,69.04
2019-03-03T07:53:50.657Z,67.52
2019-03-03T07:56:40.031Z,66.47
2019-03-03T07:59:29.625Z,67.54
2019-03-03T08:02:19.083Z,66.14
2019-03-03T08:05:08.730Z,66.65
2019-03-03T08:07:58.269Z,65.90
2019-03-03T08:10:47.641Z,65.88
2019-03-03T08:13:37.058Z,66.37
2019-03-03T08:16:26.124Z,65.78
2019-03-03T08:19:15.402Z,64.24
2019-03-03T08:22:04.363Z,63.71
2019-03-03T08:24:53.623Z,63.02
2019-03-03T08:27:42.963Z,63.47
2019-03-03T08:30:32.415Z,63.05
2019-03-03T08:33:21.798Z,62.62
2019-03-03T08:36:11.078Z,61.92
2019-03-03T08:39:00.554Z,61.18
2019-03-03T08:41:53.388Z,61.51
2019-03-03T08:44:52.225Z,60.39
2019-03-03T08:48:00.196Z,59.43
2019-03-03T08:50:59.521Z,59.80
2019-03-03T08:54:06.629Z,58.53
2019-03-03T08:57:13.374Z,58.13
2019-03-03T09:00:12.252Z,56.24
2019-03-03T09:03:23.212Z,56.74
2019-03-03T09:06:40.328Z,55.53
2019-03-03T09:09:46.393Z,55.90
2019-03-03T09:12:58.358Z,56.67
2019-03-03T09:16:16.454Z,56.99
2019-03-03T09:19:24.686Z,57.46
2019-03-03T09:22:39.024Z,57.26
2019-03-03T09:25:34.136Z,57.55
2019-03-03T09:28:38.724Z,56.02
2019-03-03T09:31:46.190Z,56.03
2019-03-03T09:35:00.504Z,56.02
2019-03-03T09:38:17.406Z,55.33
2019-03-03T09:41:36.875Z,53.64
2019-03-03T09:44:42.955Z,52.62
2019-03-03T09:47:38.557Z,51.85
2019-03-03T09:50:51.403Z,49.85
2019-03-03T09:53:57.713Z,50.61
2019-03-03T09:57:15.722Z,52.27
2019-03-03T10:00:31.177Z,52.67
2019-03-03T10:03:45.958Z,53.08
2019-03-03T10:06:54.843Z,52.46
2019-03-03T10:10:06.555Z,51.37
2019-03-03T10:13:08.446Z,52.65
2019-03-03T10:16:22.483Z,50.89
2019-03-03T10:19:17.615Z,51.58
2019-03-03T10:22:42.178Z,51.38
2019-03-03T10:25:41.917Z,53.11
2019-03-03T10:29:07.469Z,52.73
2019-03-03T10:32:22.437Z,52.87
2019-03-03T10:35:27.515Z,52.17
2019-03-03T10:38:36.166Z,50.93
2019-03-03T10:41:51.876Z,52.13
2019-03-03T10:44:59.012Z,51.50
2019-03-03T10:48:16.906Z,52.57
2019-03-03T10:51:22.395Z,52.00
2019-03-03T10:54:17.816Z,54.60
2019-03-03T10:57:25.096Z,56.69
2019-03-03T11:00:34.691Z,55.89
2019-03-03T11:03:29.718Z,55.81
2019-03-03T11:06:36.666Z,55.10
2019-03-03T11:09:36.447Z,55.44
2019-03-03T11:12:44.793Z,55.07
2019-03-03T11:15:45.621Z,53.98
2019-03-03T11:18:56.224Z,53.49
2019-03-03T11:22:04.759Z,54.46
2019-03-03T11:25:18.425Z,54.07
2019-03-03T11:28:40.269Z,54.50
2019-03-03T11:31:50.975Z,55.09
2019-03-03T11:34:59.007Z,54.04
2019-03-03T11:38:13.452Z,53.87
2019-03-03T11:41:14.375Z,53.34
2019-03-03T11:44:18.556Z,53.66
2019-03-03T11:47:26.766Z,52.90
2019-03-03T11:50:47.246Z,52.58
2019-03-03T11:53:57.419Z,51.64
2019-03-03T11:57:00.962Z,53.11
2019-03-03T12:00:09.865Z,53.59
2019-03-03T12:03:16.853Z,53.49
2019-03-03T12:06:17.436Z,52.32
2019-03-03T12:09:33.294Z,52.57
2019-03-03T12:12:38.986Z,51.61
2019-03-03T12:15:46.015Z,53.20
2019-03-03T12:19:12.833Z,53.29
2019-03-03T12:22:11.092Z,52.71
2019-03-03T12:25:22.819Z,52.65
2019-03-03T12:28:37.538Z,52.44
2019-03-03T12:31:57.988Z,51.65
2019-03-03T12:35:08.851Z,51.23
2019-03-03T12:38:26.139Z,49.01
2019-03-03T12:41:32.590Z,50.35
2019-03-03T12:44:35.568Z,50.04
2019-03-03T12:47:43.222Z,50.52
2019-03-03T12:50:58.031Z,48.64
2019-03-03T12:54:04.900Z,48.97
2019-03-03T12:57:07.094Z,48.98
2019-03-03T13:00:22.249Z,48.33
2019-03-03T13:03:33.785Z,47.49
2019-03-03T13:06:35.733Z,47.92
2019-03-03T13:09:51.546Z,46.61
2019-03-03T13:13:06.050Z,47.04
2019-03-03T13:16:08.131Z,46.97
2019-03-03T13:19:16.865Z,47.00
2019-03-03T13:22:29.808Z,47.93
2019-03-03T13:25:39.156Z,47.93
2019-03-03T13:28:53.903Z,47.97
2019-03-03T13:32:20.607Z,48.01
2019-03-03T13:35:34.800Z,48.55
2019-03-03T13:38:52.545Z,48.01
2019-03-03T13:42:09.580Z,47.56
2019-03-03T13:45:00.282Z,47.04
2019-03-03T13:47:49.723Z,48.58
2019-03-03T13:50:39.542Z,47.74
2019-03-03T13:53:29.404Z,49.73
2019-03-03T13:56:19.411Z,51.29
2019-03-03T13:59:09.916Z,49.52
2019-03-03T14:01:59.353Z,50.28
2019-03-03T14:04:54.566Z,50.90
2019-03-03T14:07:44.107Z,51.14
2019-03-03T14:10:35.857Z,50.82
2019-03-03T14:13:26.149Z,51.49
2019-03-03T14:16:15.783Z,51.97
2019-03-03T14:19:07.134Z,49.61
2019-03-03T14:21:56.138Z,49.57
2019-03-03T14:24:45.192Z,48.46
2019-03-03T14:27:35.216Z,47.27
2019-03-03T14:30:26.328Z,47.86
2019-03-03T14:33:17.078Z,46.80
2019-03-03T14:36:06.429Z,46.62
2019-03-03T14:38:55.759Z,45.87
2019-03-03T14:41:46.723Z,43.88
2019-03-03T14:44:36.139Z,44.21
2019-03-03T14:47:26.732Z,43.44
2019-03-03T14:50:18.318Z,45.41
2019-03-03T14:53:13.061Z,44.56
2019-03-03T14:56:03.440Z,43.03
2019-03-03T14:58:52.969Z,44.19
2019-03-03T15:01:43.215Z,44.48
2019-03-03T15:04:32.621Z,43.58
2019-03-03T15:07:22.711Z,45.09
2019-03-03T15:10:13.007Z,45.49
2019-03-03T15:13:02.601Z,46.37
2019-03-03T15:15:57.498Z,46.38
2019-03-03T15:18:49.139Z,46.76
2019-03-03T15:21:40.266Z,46.23
2019-03-03T15:24:29.849Z,46.17
2019-03-03T15:27:19.106Z,47.89
2019-03-03T15:30:10.073Z,49.27
2019-03-03T15:33:00.450Z,50.83
2019-03-03T15:35:32.600Z,52.11
2019-03-03T15:38:04.108Z,53.37
2019-03-03T15:40:35.181Z,53.67
2019-03-03T15:43:06.739Z,54.31
2019-03-03T15:45:38.225Z,54.35
2019-03-03T15:48:10.931Z,54.57
2019-03-03T15:50:42.936Z,54.24
2019-03-03T15:53:13.941Z,54.18
2019-03-03T15:55:45.703Z,54.64
2019-03-03T15:58:17.214Z,54.16
2019-03-03T16:00:48.209Z,54.08
2019-03-03T16:03:19.230Z,54.58
2019-03-03T16:05:50.307Z,53.90
2019-03-03T16:08:22.408Z,55.06
2019-03-03T16:10:54.266Z,55.09
2019-03-03T16:13:25.562Z,55.13
2019-03-03T16:15:56.735Z,54.89
2019-03-03T16:18:28.081Z,55.15
2019-03-03T16:20:59.074Z,55.04
2019-03-03T16:23:30.120Z,55.65
2019-03-03T16:26:01.903Z,56.06
2019-03-03T16:28:33.207Z,56.34
2019-03-03T16:31:06.048Z,55.72
2019-03-03T16:33:37.087Z,55.88
2019-03-03T16:36:08.634Z,56.28
2019-03-03T16:38:39.992Z,56.23
2019-03-03T16:41:11.481Z,56.30
2019-03-03T16:43:43.303Z,56.34
2019-03-03T16:46:15.816Z,56.89
2019-03-03T16:48:47.165Z,56.70
2019-03-03T16:51:18.528Z,56.53
2019-03-03T16:53:49.921Z,56.95
2019-03-03T16:56:21.392Z,56.95
2019-03-03T16:58:52.383Z,57.05
2019-03-03T17:01:23.795Z,57.52
2019-03-03T17:03:55.037Z,57.55
2019-03-03T17:06:26.060Z,58.29
2019-03-03T17:08:57.242Z,58.09
2019-03-03T17:11:28.334Z,56.76
2019-03-03T17:13:59.376Z,56.40
2019-03-03T17:16:31.246Z,56.85
2019-03-03T17:19:02.292Z,56.50
2019-03-03T17:21:33.288Z,57.68
2019-03-03T17:24:06.036Z,58.21
2019-03-03T17:26:37.135Z,58.28
2019-03-03T17:29:08.836Z,59.48
2019-03-03T17:31:40.955Z,59.93
2019-03-03T17:34:13.257Z,59.58
2019-03-03T17:36:45.235Z,59.54
2019-03-03T17:39:16.761Z,59.65
2019-03-03T17:41:48.482Z,60.09
2019-03-03T17:44:19.892Z,60.25
2019-03-03T17:46:51.234Z,60.05
2019-03-03T17:49:24.499Z,59.88
2019-03-03T17:51:55.546Z,60.38
2019-03-03T17:54:26.571Z,61.03
2019-03-03T17:56:57.665Z,62.09
2019-03-03T17:59:28.666Z,62.71
2019-03-03T18:02:00.066Z,63.60
2019-03-03T18:04:31.130Z,64.59
2019-03-03T18:07:04.296Z,65.12
2019-03-03T18:09:35.307Z,64.70
2019-03-03T18:12:07.112Z,63.74
2019-03-03T18:14:40.240Z,63.84
2019-03-03T18:17:11.695Z,64.33
2019-03-03T18:19:42.765Z,65.20
2019-03-03T18:22:14.889Z,65.83
2019-03-03T18:24:46.931Z,65.99
2019-03-03T18:27:18.715Z,65.32
2019-03-03T18:29:50.069Z,66.41
2019-03-03T18:32:21.595Z,66.22
2019-03-03T18:34:52.639Z,67.32
2019-03-03T18:37:24.023Z,65.76
2019-03-03T18:39:56.860Z,65.37
2019-03-03T18:42:29.899Z,64.84
2019-03-03T18:45:00.908Z,64.95
2019-03-03T18:47:31.936Z,65.67
2019-03-03T18:50:03.063Z,65.00
2019-03-03T18:52:34.840Z,66.30
2019-03-03T18:55:08.234Z,65.58
2019-03-03T18:57:39.673Z,68.12
2019-03-03T19:00:18.598Z,68.09
2019-03-03T19:02:49.676Z,68.10
2019-03-03T19:05:23.705Z,71.61
2019-03-03T19:07:55.191Z,70.30
2019-03-03T19:10:26.717Z,70.36
2019-03-03T19:12:58.229Z,69.86
2019-03-03T19:15:29.918Z,72.29
2019-03-03T19:18:01.097Z,70.00
2019-03-03T19:20:33.324Z,70.59
2019-03-03T19:23:04.867Z,72.41
2019-03-03T19:25:35.915Z,71.99
2019-03-03T19:28:07.441Z,71.29
2019-03-03T19:30:38.943Z,72.28
2019-03-03T19:33:19.427Z,71.24
2019-03-03T19:35:51.190Z,70.59
2019-03-03T19:38:22.532Z,71.33
2019-03-03T19:40:53.651Z,72.50
2019-03-03T19:43:25.091Z,72.11
2019-03-03T19:45:56.208Z,73.23
2019-03-03T19:48:28.755Z,73.28
2019-03-03T19:50:59.965Z,73.72
2019-03-03T19:53:31.630Z,74.46
2019-03-03T19:56:03.648Z,75.40
2019-03-03T19:58:35.545Z,74.53
2019-03-03T20:01:07.822Z,74.75
2019-03-03T20:03:39.206Z,76.03
2019-03-03T20:06:10.822Z,76.73
2019-03-03T20:08:41.928Z,75.68
2019-03-03T20:11:13.091Z,75.08
2019-03-03T20:13:44.128Z,75.84
2019-03-03T20:16:16.730Z,74.89
2019-03-03T20:18:50.810Z,75.38
2019-03-03T20:21:23.194Z,76.24
2019-03-03T20:23:54.404Z,75.72
2019-03-03T20:26:27.070Z,75.30
2019-03-03T20:28:58.571Z,76.43
2019-03-03T20:31:29.609Z,77.13
2019-03-03T20:34:01.106Z,76.47
2019-03-03T20:36:32.124Z,76.90
2019-03-03T20:39:03.227Z,77.27
2019-03-03T20:41:34.235Z,77.91
2019-03-03T20:44:05.382Z,76.60
2019-03-03T20:46:37.825Z,77.19
2019-03-03T20:49:15.084Z,78.02
2019-03-03T20:51:50.107Z,78.39
2019-03-03T20:54:26.699Z,77.22
2019-03-03T20:56:59.096Z,77.04
2019-03-03T20:59:48.883Z,77.32
2019-03-03T21:02:40.225Z,78.06
2019-03-03T21:05:30.578Z,78.19
2019-03-03T21:08:23.126Z,78.44
2019-03-03T21:11:17.497Z,79.56
2019-03-03T21:14:09.550Z,80.21
2019-03-03T21:16:59.945Z,82.69
2019-03-03T21:19:59.256Z,83.30
2019-03-03T21:22:49.665Z,83.46
2019-03-03T21:25:42.419Z,84.27
2019-03-03T21:28:47.099Z,84.35
2019-03-03T21:31:42.227Z,82.84
2019-03-03T21:34:32.106Z,82.24
2019-03-03T21:37:22.306Z,83.33
2019-03-03T21:40:17.865Z,84.54
2019-03-03T21:43:08.657Z,85.36
2019-03-03T21:46:01.062Z,85.36
2019-03-03T21:48:56.672Z,84.71
2019-03-03T21:51:47.764Z,83.33
2019-03-03T21:54:40.419Z,82.28
2019-03-03T21:57:30.531Z,81.67
2019-03-03T22:00:34.320Z,82.26
2019-03-03T22:03:24.315Z,81.16
2019-03-03T22:06:16.899Z,81.79
2019-03-03T22:09:13.420Z,81.66
2019-03-03T22:12:09.130Z,81.50
2019-03-03T22:14:58.936Z,82.86
2019-03-03T22:17:48.887Z,82.48
2019-03-03T22:20:57.488Z,82.66
2019-03-03T22:23:47.504Z,82.53
2019-03-03T22:26:39.193Z,83.21
2019-03-03T22:29:35.464Z,82.26
2019-03-03T22:32:28.582Z,82.18
2019-03-03T22:35:19.450Z,82.17
2019-03-03T22:38:13.730Z,83.51
2019-03-03T22:41:09.155Z,82.53
2019-03-03T22:44:01.029Z,86.16
2019-03-03T22:46:51.464Z,86.90
2019-03-03T22:49:46.545Z,88.54
2019-03-03T22:52:36.046Z,89.49
2019-03-03T22:55:27.791Z,90.35
2019-03-03T22:58:22.180Z,89.87
2019-03-03T23:01:21.706Z,89.69
2019-03-03T23:04:45.309Z,88.64
2019-03-03T23:08:10.807Z,86.95
2019-03-03T23:11:48.191Z,87.43
2019-03-03T23:15:00.351Z,87.53
2019-03-03T23:18:23.053Z,87.67
2019-03-03T23:21:29.919Z,88.60
2019-03-03T23:24:57.363Z,87.77
2019-03-03T23:27:51.160Z,88.64
2019-03-03T23:30:44.070Z,89.42
2019-03-03T23:33:33.238Z,89.10
2019-03-03T23:36:25.976Z,88.32
2019-03-03T23:39:16.089Z,87.47
2019-03-03T23:42:08.301Z,87.50
2019-03-03T23:45:00.310Z,86.96
2019-03-03T23:47:55.143Z,87.83
2019-03-03T23:50:47.167Z,88.79
2019-03-03T23:53:39.824Z,87.79
2019-03-03T23:56:31.130Z,87.92
2019-03-03T23:59:20.920Z,88.91
